Time;durP1;ratioP1;P1;durP2;ratioP2;P2;SDS_P1;SDS_P2;PMS_P1;PMS_P2;Temp;Humidity;BMP_temperature;BMP_pressure;BME280_temperature;BME280_humidity;BME280_pressure;Samples;Min_cycle;Max_cycle;Signal;HPM_P1;HPM_P2
2022/04/15 00:00:11;;;;;;;7.35;4.90;;;;;;;14.33;57.46;101045.97;5057183;28;20045;-84
2022/04/15 00:02:39;;;;;;;9.15;5.55;;;;;;;14.25;57.80;101055.19;5046134;28;20409;-84
2022/04/15 00:05:29;;;;;;;7.30;5.15;;;;;;;14.17;58.10;101054.84;5056927;28;20048;-84
2022/04/15 00:07:56;;;;;;;6.85;5.47;;;;;;;14.05;58.77;101063.03;5056992;28;20056;-83
2022/04/15 00:10:27;;;;;;;9.20;5.70;;;;;;;13.98;59.18;101055.09;5057907;28;20053;-84
2022/04/15 00:12:55;;;;;;;6.38;5.47;;;;;;;13.95;59.23;101064.13;5047023;28;20064;-83
2022/04/15 00:15:25;;;;;;;7.82;5.55;;;;;;;13.92;59.39;101056.41;5037086;28;20049;-84
2022/04/15 00:17:53;;;;;;;8.77;5.70;;;;;;;13.88;59.47;101057.34;5037367;28;20062;-84
2022/04/15 00:20:20;;;;;;;9.27;5.88;;;;;;;13.85;59.82;101058.00;5045926;28;20067;-83
2022/04/15 00:22:48;;;;;;;7.32;5.47;;;;;;;13.82;59.55;101059.47;5057255;28;20072;-84
2022/04/15 00:25:18;;;;;;;9.70;5.45;;;;;;;13.81;59.23;101055.00;5056436;28;20053;-84
2022/04/15 00:27:46;;;;;;;10.25;5.57;;;;;;;13.73;59.74;101056.63;5056694;28;20057;-83
2022/04/15 00:30:16;;;;;;;9.32;6.25;;;;;;;13.66;59.27;101056.25;5055922;28;20060;-83
2022/04/15 00:32:47;;;;;;;8.85;5.35;;;;;;;13.56;59.52;101056.53;5050091;28;20045;-83
2022/04/15 00:35:14;;;;;;;9.32;5.78;;;;;;;13.43;59.88;101060.25;5050685;28;20061;-83
2022/04/15 00:37:42;;;;;;;9.70;5.28;;;;;;;13.30;60.46;101059.97;5055786;28;20057;-84
2022/04/15 00:40:10;;;;;;;7.28;5.78;;;;;;;13.21;60.71;101067.47;5056301;28;20049;-83
2022/04/15 00:42:38;;;;;;;8.50;6.10;;;;;;;13.06;61.15;101065.88;5055794;28;20049;-84
2022/04/15 00:45:09;;;;;;;7.38;5.60;;;;;;;12.95;61.60;101064.44;5056283;28;20185;-84
2022/04/15 00:47:51;;;;;;;9.05;5.97;;;;;;;12.83;61.76;101059.44;5054783;28;20045;-84
2022/04/15 00:50:20;;;;;;;8.25;6.25;;;;;;;12.71;61.76;101059.16;5044860;28;20060;-84
2022/04/15 00:52:50;;;;;;;10.63;6.78;;;;;;;12.59;61.89;101060.50;5057431;28;20053;-83
2022/04/15 00:55:20;;;;;;;8.48;5.97;;;;;;;12.49;62.35;101059.91;5058265;28;20057;-82
2022/04/15 00:57:50;;;;;;;8.07;6.55;;;;;;;12.37;62.14;101061.28;5037545;28;20050;-84
2022/04/15 01:00:19;;;;;;;10.68;7.38;;;;;;;12.28;62.43;101065.91;5036457;28;20061;-84
2022/04/15 01:02:48;;;;;;;8.40;6.55;;;;;;;12.17;62.74;101067.28;5036140;28;20364;-84
2022/04/15 01:05:18;;;;;;;9.77;6.18;;;;;;;12.05;62.82;101065.00;5046386;28;20056;-84
2022/04/15 01:07:49;;;;;;;10.10;6.32;;;;;;;11.96;62.90;101064.91;5054801;28;20053;-84
2022/04/15 01:10:18;;;;;;;9.50;6.65;;;;;;;11.87;63.30;101063.13;5055674;28;20052;-84
2022/04/15 01:12:47;;;;;;;11.40;7.30;;;;;;;11.76;63.97;101063.31;5043989;28;20128;-83
2022/04/15 01:15:15;;;;;;;9.55;6.75;;;;;;;11.66;64.15;101071.88;5054840;28;20055;-83
2022/04/15 01:17:43;;;;;;;9.05;6.88;;;;;;;11.58;64.12;101073.38;5055736;28;20049;-84
2022/04/15 01:20:14;;;;;;;10.43;6.60;;;;;;;11.50;64.29;101070.47;5050896;28;20056;-84
2022/04/15 01:22:47;;;;;;;8.57;6.22;;;;;;;11.41;64.47;101078.72;5037457;28;20049;-84
2022/04/15 01:25:18;;;;;;;9.35;6.72;;;;;;;11.34;64.89;101081.91;5035748;28;20062;-84
2022/04/15 01:27:47;;;;;;;8.73;6.15;;;;;;;11.26;64.93;101085.38;5035370;28;20049;-84
2022/04/15 01:30:16;;;;;;;7.72;6.43;;;;;;;11.22;64.99;101086.31;5037066;28;20056;-84
2022/04/15 01:32:44;;;;;;;8.85;6.18;;;;;;;11.15;65.41;101083.91;5049917;28;20433;-84
2022/04/15 01:35:14;;;;;;;9.60;6.45;;;;;;;11.10;65.31;101083.97;5053976;28;20064;-84
2022/04/15 01:37:42;;;;;;;8.38;6.72;;;;;;;11.05;65.63;101089.66;5055801;28;20520;-84
2022/04/15 01:40:11;;;;;;;9.57;6.68;;;;;;;11.00;65.64;101095.28;5058937;28;20060;-84
2022/04/15 01:42:42;;;;;;;9.68;6.53;;;;;;;10.93;65.80;101093.69;5048452;28;20444;-84
2022/04/15 01:45:10;;;;;;;9.93;6.53;;;;;;;10.85;66.07;101094.38;5058613;28;20080;-84
2022/04/15 01:47:38;;;;;;;9.15;6.35;;;;;;;10.80;66.47;101102.00;5058674;28;20053;-83
2022/04/15 01:50:07;;;;;;;9.93;7.10;;;;;;;10.73;66.61;101096.78;5054405;28;20405;-83
2022/04/15 01:52:34;;;;;;;9.60;6.47;;;;;;;10.70;66.59;101097.38;5058448;28;20060;-82
2022/04/15 01:55:02;;;;;;;10.60;7.57;;;;;;;10.64;66.87;101099.41;5058940;28;20060;-82
2022/04/15 01:57:30;;;;;;;9.57;6.57;;;;;;;10.59;66.68;101099.50;5058848;28;20052;-83
2022/04/15 01:59:58;;;;;;;10.50;7.07;;;;;;;10.52;66.78;101105.44;5056769;28;20057;-83
2022/04/15 02:02:26;;;;;;;8.13;5.95;;;;;;;10.44;66.98;101106.09;5046276;28;20049;-83
2022/04/15 02:04:54;;;;;;;7.60;6.45;;;;;;;10.39;67.19;101106.13;5057814;28;20060;-84
2022/04/15 02:07:21;;;;;;;7.65;5.90;;;;;;;10.35;67.39;101107.84;5057539;28;20049;-84
2022/04/15 02:09:49;;;;;;;7.95;6.50;;;;;;;10.30;67.30;101113.50;5057676;28;20053;-83
2022/04/15 02:12:19;;;;;;;10.38;6.53;;;;;;;10.29;67.09;101111.78;5058180;28;20053;-84
2022/04/15 02:14:47;;;;;;;8.25;6.53;;;;;;;10.25;67.59;101107.97;5054837;28;20116;-83
2022/04/15 02:17:17;;;;;;;8.93;7.65;;;;;;;10.20;67.70;101116.38;5048258;28;20057;-83
2022/04/15 02:19:44;;;;;;;10.02;6.30;;;;;;;10.15;67.46;101115.31;5057789;28;20049;-82
2022/04/15 02:22:14;;;;;;;6.18;5.47;;;;;;;10.07;67.74;101115.94;5058079;28;20057;-81
2022/04/15 02:24:41;;;;;;;8.05;6.22;;;;;;;10.03;67.70;101112.09;5058126;28;20056;-83
2022/04/15 02:27:09;;;;;;;8.85;5.57;;;;;;;9.98;67.79;101108.56;5058789;28;20397;-83
2022/04/15 02:29:38;;;;;;;9.27;7.00;;;;;;;9.96;67.75;101106.06;5058076;28;20496;-83
2022/04/15 02:32:07;;;;;;;13.32;7.43;;;;;;;9.93;68.36;101109.41;5057826;28;20053;-83
2022/04/15 02:34:35;;;;;;;9.27;6.70;;;;;;;9.88;68.26;101115.06;5058307;28;20049;-83
2022/04/15 02:37:03;;;;;;;10.35;6.47;;;;;;;9.82;68.21;101113.44;5064546;28;20067;-83
2022/04/15 02:39:32;;;;;;;10.55;7.28;;;;;;;9.77;68.34;101113.50;5060193;28;20064;-83
2022/04/15 02:42:00;;;;;;;8.13;7.13;;;;;;;9.72;68.69;101129.13;5057880;28;20053;-83
2022/04/15 02:44:29;;;;;;;10.88;6.90;;;;;;;9.68;68.47;101122.47;5057352;28;20474;-83
2022/04/15 02:46:58;;;;;;;9.90;7.22;;;;;;;9.65;68.46;101123.03;5058286;28;20440;-83
2022/04/15 02:49:27;;;;;;;9.15;6.57;;;;;;;9.61;68.75;101121.16;5057997;28;20052;-83
2022/04/15 02:51:56;;;;;;;10.48;7.57;;;;;;;9.56;68.89;101116.47;5060517;28;20052;-82
2022/04/15 02:54:24;;;;;;;11.60;7.65;;;;;;;9.53;69.18;101114.25;5058662;28;20060;-83
2022/04/15 02:56:52;;;;;;;9.68;7.45;;;;;;;9.50;69.00;101120.41;5057567;28;20053;-83
2022/04/15 02:59:20;;;;;;;12.45;8.45;;;;;;;9.47;69.56;101121.84;5057816;28;20052;-82
2022/04/15 03:01:50;;;;;;;12.63;9.30;;;;;;;9.41;69.91;101123.00;5058321;28;20053;-83
2022/04/15 03:04:17;;;;;;;10.35;8.30;;;;;;;9.40;69.58;101114.94;5057713;28;20064;-82
2022/04/15 03:06:45;;;;;;;11.93;8.25;;;;;;;9.37;70.09;101116.34;5065783;28;20412;-84
2022/04/15 03:09:14;;;;;;;10.73;7.57;;;;;;;9.33;70.43;101118.88;5073577;28;20056;-84
2022/04/15 03:11:41;;;;;;;10.15;8.48;;;;;;;9.30;70.54;101119.47;5077666;28;20052;-84
2022/04/15 03:14:09;;;;;;;10.85;8.05;;;;;;;9.27;70.37;101122.81;5078106;28;20045;-84
2022/04/15 03:16:39;;;;;;;12.13;7.82;;;;;;;9.24;70.41;101120.63;5077284;28;20056;-83
2022/04/15 03:19:07;;;;;;;10.38;8.10;;;;;;;9.20;70.35;101121.47;5077837;28;20056;-83
2022/04/15 03:21:35;;;;;;;11.52;8.65;;;;;;;9.16;70.26;101126.78;5069498;28;20481;-83
2022/04/15 03:24:03;;;;;;;10.60;8.18;;;;;;;9.12;70.23;101125.72;5058012;28;20056;-84
2022/04/15 03:26:35;;;;;;;11.18;7.95;;;;;;;9.10;70.37;101127.94;5056668;28;20064;-83
2022/04/15 03:29:02;;;;;;;12.30;8.20;;;;;;;9.07;70.29;101123.81;5057065;28;20060;-84
2022/04/15 03:31:30;;;;;;;10.50;8.45;;;;;;;9.05;70.08;101125.19;5057003;28;20151;-83
2022/04/15 03:33:57;;;;;;;14.00;10.02;;;;;;;9.00;70.89;101128.84;5056608;28;20057;-84
2022/04/15 03:36:25;;;;;;;14.95;9.55;;;;;;;8.99;71.28;101134.69;5058292;28;20053;-84
2022/04/15 03:38:53;;;;;;;10.73;8.98;;;;;;;8.96;71.18;101126.94;5055497;28;20060;-84
2022/04/15 03:41:22;;;;;;;13.20;8.75;;;;;;;8.96;70.81;101126.94;5054795;28;20489;-84
2022/04/15 03:43:51;;;;;;;11.35;7.93;;;;;;;8.91;70.08;101125.84;5042973;28;20049;-84
2022/04/15 03:46:19;;;;;;;10.00;7.70;;;;;;;8.86;70.28;101127.81;5037146;28;20049;-84
2022/04/15 03:48:46;;;;;;;11.98;8.38;;;;;;;8.83;70.69;101125.63;5044807;28;20052;-84
2022/04/15 03:51:14;;;;;;;10.93;7.55;;;;;;;8.80;70.93;101127.03;5051556;28;20060;-83
2022/04/15 03:53:41;;;;;;;10.25;7.95;;;;;;;8.77;70.35;101124.81;5056790;28;20056;-83
2022/04/15 03:56:09;;;;;;;10.10;7.45;;;;;;;8.73;70.52;101126.50;5051880;28;20057;-83
2022/04/15 03:58:36;;;;;;;11.77;8.18;;;;;;;8.68;71.04;101127.34;5045743;28;20061;-83
2022/04/15 04:01:05;;;;;;;11.80;8.68;;;;;;;8.65;70.92;101135.41;5036615;28;20076;-84
2022/04/15 04:03:32;;;;;;;14.32;9.02;;;;;;;8.65;70.97;101127.09;5055327;28;20053;-84
2022/04/15 04:06:01;;;;;;;13.40;9.38;;;;;;;8.62;71.37;101127.69;5056777;28;20049;-84
2022/04/15 04:08:28;;;;;;;14.73;10.15;;;;;;;8.58;71.61;101132.13;5056278;28;20053;-83
2022/04/15 04:10:56;;;;;;;11.85;9.05;;;;;;;8.56;71.70;101131.59;5056012;28;20491;-85
2022/04/15 04:13:23;;;;;;;13.23;9.65;;;;;;;8.53;71.52;101133.81;5044689;28;20049;-84
2022/04/15 04:15:51;;;;;;;14.07;9.65;;;;;;;8.49;71.44;101135.50;5054851;28;20063;-84
2022/04/15 04:18:26;;;;;;;15.05;10.63;;;;;;;8.47;71.62;101134.94;5043796;28;20497;-84
2022/04/15 04:20:53;;;;;;;11.82;9.43;;;;;;;8.45;71.53;101141.91;5042756;28;20061;-83
2022/04/15 04:23:21;;;;;;;11.60;9.20;;;;;;;8.44;71.65;101141.09;5055758;28;20045;-82
2022/04/15 04:25:48;;;;;;;12.52;9.75;;;;;;;8.41;71.91;101157.47;5042779;28;20060;-82
2022/04/15 04:28:16;;;;;;;13.00;10.00;;;;;;;8.40;71.62;101147.44;5036492;28;20049;-82
2022/04/15 04:30:43;;;;;;;14.75;10.77;;;;;;;8.37;71.81;101151.63;5038747;28;20049;-82
2022/04/15 04:33:10;;;;;;;12.38;8.85;;;;;;;8.38;71.80;101153.28;5056121;28;20045;-83
2022/04/15 04:35:39;;;;;;;11.57;8.40;;;;;;;8.40;71.97;101153.84;5045372;28;20048;-84
2022/04/15 04:38:07;;;;;;;11.38;8.77;;;;;;;8.46;72.19;101151.88;5052664;28;20497;-84
2022/04/15 04:40:35;;;;;;;13.07;9.10;;;;;;;8.53;73.14;101164.34;5051915;28;20048;-83
2022/04/15 04:43:04;;;;;;;12.48;9.18;;;;;;;8.64;72.96;101161.53;5045547;28;20061;-83
2022/04/15 04:45:33;;;;;;;17.40;9.75;;;;;;;8.76;72.62;101161.19;5048964;28;20056;-83
2022/04/15 04:48:02;;;;;;;11.27;9.35;;;;;;;8.88;72.64;101164.47;5050645;28;20045;-83
2022/04/15 04:50:32;;;;;;;11.60;8.80;;;;;;;8.99;72.42;101165.25;5039660;28;20414;-82
2022/04/15 04:53:01;;;;;;;10.88;8.70;;;;;;;9.13;72.33;101171.81;5042820;28;20076;-83
2022/04/15 04:55:28;;;;;;;10.10;8.77;;;;;;;9.27;72.24;101181.19;5040929;28;20506;-83
2022/04/15 04:57:56;;;;;;;10.55;7.68;;;;;;;9.41;71.19;101177.75;5049570;28;20052;-84
2022/04/15 05:00:23;;;;;;;12.20;7.15;;;;;;;9.53;71.19;101186.56;5037474;28;20509;-84
2022/04/15 05:02:50;;;;;;;10.77;7.57;;;;;;;9.64;70.88;101182.59;5037223;28;20057;-83
2022/04/15 05:05:18;;;;;;;8.40;7.00;;;;;;;9.77;70.98;101192.22;5055057;28;20059;-84
2022/04/15 05:07:45;;;;;;;11.73;7.50;;;;;;;9.88;70.59;101192.97;5053963;28;20052;-84
2022/04/15 05:10:17;;;;;;;9.68;7.93;;;;;;;9.98;70.31;101197.63;5052307;28;20049;-83
2022/04/15 05:12:45;;;;;;;11.77;8.40;;;;;;;10.11;70.23;101203.31;5048390;28;20056;-83
2022/04/15 05:15:12;;;;;;;12.85;9.25;;;;;;;10.23;70.16;101205.72;5059038;28;20053;-82
2022/04/15 05:17:40;;;;;;;13.13;10.77;;;;;;;10.33;70.03;101204.78;5059620;28;20477;-83
2022/04/15 05:20:08;;;;;;;10.13;8.82;;;;;;;10.43;70.03;101201.88;5053508;28;20045;-84
2022/04/15 05:36:39;;;;;;;;;;;;;;;;;;;;;
2022/04/15 06:00:58;;;;;;;33.70;19.25;;;;;;;11.06;69.75;101264.13;5007291;28;20473;-84
2022/04/15 06:18:20;;;;;;;20.55;14.40;;;;;;;11.47;68.28;101292.31;4970555;28;20078;-83
2022/04/15 06:20:50;;;;;;;20.75;13.73;;;;;;;11.54;67.49;101294.72;4934499;29;20081;-84
2022/04/15 06:23:18;;;;;;;20.20;13.68;;;;;;;11.58;67.27;101304.97;5017015;28;20416;-85
2022/04/15 06:25:47;;;;;;;20.30;13.40;;;;;;;11.62;66.96;101301.59;5077008;28;20416;-84
2022/04/15 06:28:16;;;;;;;15.38;11.75;;;;;;;11.65;65.83;101312.16;5076371;28;20051;-84
2022/04/15 06:30:43;;;;;;;16.67;10.98;;;;;;;11.71;65.50;101320.13;5076769;28;20057;-83
2022/04/15 06:33:10;;;;;;;16.65;12.70;;;;;;;11.70;65.63;101326.88;5076508;28;20060;-83
2022/04/15 06:35:41;;;;;;;17.27;12.25;;;;;;;11.75;65.32;101323.16;5076376;28;20048;-83
2022/04/15 06:38:09;;;;;;;15.60;11.45;;;;;;;11.85;64.74;101327.78;5076125;28;20048;-85
2022/04/15 06:40:38;;;;;;;14.90;11.82;;;;;;;11.84;64.82;101331.69;5077802;28;20138;-83
2022/04/15 06:43:06;;;;;;;13.35;10.07;;;;;;;11.87;64.22;101331.09;5076755;28;20536;-83
2022/04/15 06:45:37;;;;;;;15.05;10.57;;;;;;;11.83;63.08;101330.03;5077249;28;20060;-84
2022/04/15 06:48:05;;;;;;;13.18;9.68;;;;;;;11.81;62.72;101340.69;5076723;28;20055;-84
2022/04/15 06:50:32;;;;;;;13.00;9.70;;;;;;;11.84;62.78;101340.06;5077845;28;20408;-83
2022/04/15 06:52:59;;;;;;;12.52;9.32;;;;;;;11.81;61.96;101347.09;5076789;28;20052;-84
2022/04/15 06:55:27;;;;;;;11.50;8.30;;;;;;;11.78;61.78;101339.31;5076113;28;20048;-84
2022/04/15 06:57:54;;;;;;;10.38;8.07;;;;;;;11.77;61.93;101338.47;5076180;28;20048;-85
2022/04/15 07:00:25;;;;;;;10.75;8.38;;;;;;;11.82;61.69;101350.69;5075746;28;20051;-83
2022/04/15 07:02:54;;;;;;;9.52;7.18;;;;;;;11.91;61.60;101348.94;5075509;28;20048;-84
2022/04/15 07:05:21;;;;;;;8.05;6.75;;;;;;;11.95;61.18;101345.22;5077196;28;20366;-86
2022/04/15 07:07:48;;;;;;;10.38;7.85;;;;;;;12.00;60.52;101346.28;5076339;28;20056;-83
2022/04/15 07:10:16;;;;;;;8.32;7.18;;;;;;;11.99;60.06;101353.84;5064750;28;20049;-84
2022/04/15 07:12:43;;;;;;;10.02;7.80;;;;;;;12.03;60.10;101351.25;5057029;28;20056;-83
2022/04/15 07:15:11;;;;;;;11.38;9.73;;;;;;;12.01;59.93;101354.38;5057110;28;20528;-84
2022/04/15 07:17:38;;;;;;;10.10;8.38;;;;;;;11.99;60.30;101362.22;5049943;28;20053;-84
2022/04/15 07:20:08;;;;;;;10.77;8.75;;;;;;;12.12;59.56;101349.47;5050694;28;20063;-83
2022/04/15 07:22:36;;;;;;;11.98;10.32;;;;;;;12.16;59.14;101354.13;5056592;28;20049;-84
2022/04/15 07:25:03;;;;;;;12.40;9.68;;;;;;;12.18;59.45;101356.63;5056345;28;20096;-84
2022/04/15 07:27:31;;;;;;;12.43;9.55;;;;;;;12.16;58.86;101358.88;5056364;28;20053;-84
2022/04/15 07:29:58;;;;;;;9.73;8.20;;;;;;;12.24;58.72;101362.94;5055138;28;20049;-84
2022/04/15 07:32:27;;;;;;;10.32;8.48;;;;;;;12.28;58.54;101364.00;5056487;28;20049;-83
2022/04/15 07:34:55;;;;;;;8.98;7.80;;;;;;;12.33;58.05;101366.72;5055150;28;20052;-84
2022/04/15 07:37:23;;;;;;;10.00;6.97;;;;;;;12.41;57.91;101365.16;5056059;28;20052;-83
2022/04/15 07:39:51;;;;;;;8.70;7.80;;;;;;;12.44;56.99;101365.41;5054440;28;20061;-83
2022/04/15 07:42:18;;;;;;;8.35;6.93;;;;;;;12.49;57.34;101364.47;5054502;28;20072;-84
2022/04/15 07:44:46;;;;;;;7.45;6.45;;;;;;;12.58;57.30;101365.47;5055832;28;20037;-84
2022/04/15 07:47:15;;;;;;;8.82;7.63;;;;;;;12.66;56.97;101370.34;5055253;28;20052;-82
2022/04/15 07:49:42;;;;;;;11.07;8.57;;;;;;;12.73;55.98;101369.94;5056067;28;20064;-84
2022/04/15 07:52:10;;;;;;;10.05;8.10;;;;;;;12.73;56.17;101367.97;5052986;28;20041;-83
2022/04/15 07:54:39;;;;;;;8.95;8.05;;;;;;;12.93;56.09;101363.97;5055385;28;20067;-84
2022/04/15 07:57:06;;;;;;;11.63;9.53;;;;;;;13.13;56.08;101361.94;5053603;28;20480;-84
2022/04/15 07:59:35;;;;;;;10.48;9.32;;;;;;;13.29;55.40;101366.13;5052949;28;20060;-83
2022/04/15 08:02:06;;;;;;;10.87;8.47;;;;;;;13.49;54.76;101370.44;5064163;28;20052;-82
2022/04/15 08:04:34;;;;;;;11.88;8.90;;;;;;;13.68;54.20;101366.69;5057401;28;20053;-82
2022/04/15 08:07:02;;;;;;;10.25;8.32;;;;;;;13.90;54.26;101360.31;5060271;28;20080;-82
2022/04/15 08:09:30;;;;;;;10.50;8.45;;;;;;;14.00;53.83;101360.06;5058346;28;20447;-84
2022/04/15 08:11:59;;;;;;;13.40;10.73;;;;;;;14.15;52.58;101364.47;5074151;28;20052;-83
2022/04/15 08:14:26;;;;;;;10.43;8.27;;;;;;;14.20;51.87;101364.38;5076707;28;20048;-84
2022/04/15 08:16:53;;;;;;;10.35;8.80;;;;;;;14.09;52.19;101365.75;5075048;28;20052;-83
2022/04/15 08:19:20;;;;;;;11.18;9.20;;;;;;;14.09;52.48;101362.94;5074867;28;20064;-83
2022/04/15 08:21:49;;;;;;;10.88;8.77;;;;;;;14.04;51.63;101363.91;5074772;28;20482;-83
2022/04/15 08:24:17;;;;;;;9.80;8.30;;;;;;;13.99;51.73;101369.63;5075183;28;20079;-84
2022/04/15 08:26:45;;;;;;;9.90;8.88;;;;;;;13.90;52.13;101366.75;5076064;28;20056;-85
2022/04/15 08:29:14;;;;;;;12.15;10.20;;;;;;;13.86;51.65;101374.13;5076122;28;20049;-85
2022/04/15 08:31:41;;;;;;;10.77;9.67;;;;;;;13.82;51.69;101375.91;5076862;28;20053;-85
2022/04/15 08:34:09;;;;;;;11.75;9.60;;;;;;;13.77;51.30;101374.06;5075965;28;20052;-85
2022/04/15 08:36:36;;;;;;;9.40;8.40;;;;;;;13.70;51.68;101382.03;5076349;28;20048;-83
2022/04/15 08:39:05;;;;;;;10.45;8.75;;;;;;;13.72;51.79;101374.16;5076266;28;20059;-82
2022/04/15 08:41:41;;;;;;;12.70;9.50;;;;;;;13.67;52.21;101388.28;5075997;28;20057;-83
2022/04/15 08:44:09;;;;;;;11.18;9.55;;;;;;;13.62;52.25;101399.56;5081482;28;20587;-82
2022/04/15 08:46:39;;;;;;;10.48;9.35;;;;;;;13.55;52.31;101386.00;5078567;28;20059;-82
2022/04/15 08:49:07;;;;;;;10.60;8.55;;;;;;;13.41;52.36;101396.34;5080182;28;20489;-82
2022/04/15 08:51:35;;;;;;;8.57;7.63;;;;;;;13.48;52.55;101407.13;5080202;28;20051;-83
2022/04/15 08:54:06;;;;;;;7.72;6.93;;;;;;;13.51;52.32;101392.53;5078654;28;20416;-84
2022/04/15 08:56:33;;;;;;;8.23;7.43;;;;;;;13.53;52.74;101398.66;5079579;28;20052;-83
2022/04/15 08:59:01;;;;;;;9.88;8.63;;;;;;;13.54;52.87;101398.34;5079051;28;20053;-83
2022/04/15 09:01:29;;;;;;;10.75;9.65;;;;;;;13.51;52.61;101401.75;5078718;28;20055;-83
2022/04/15 09:04:01;;;;;;;11.85;10.65;;;;;;;13.54;52.50;101401.13;5080514;28;20056;-83
2022/04/15 09:06:30;;;;;;;11.00;9.90;;;;;;;13.59;52.86;101403.81;5081523;28;20041;-84
2022/04/15 09:09:12;;;;;;;11.38;10.27;;;;;;;13.67;52.48;101412.63;5079795;28;20079;-83
2022/04/15 09:11:41;;;;;;;10.55;9.45;;;;;;;13.70;52.52;101403.59;5081164;28;20052;-83
2022/04/15 09:14:11;;;;;;;11.90;10.43;;;;;;;13.67;52.29;101405.06;5070808;28;20051;-83
2022/04/15 09:16:40;;;;;;;11.70;10.50;;;;;;;13.69;52.55;101415.94;5082029;28;20393;-83
2022/04/15 09:19:12;;;;;;;11.63;10.32;;;;;;;13.71;52.53;101414.50;5081087;28;20059;-84
2022/04/15 09:21:41;;;;;;;10.32;9.35;;;;;;;13.73;52.67;101420.63;5080157;28;20045;-84
2022/04/15 09:24:11;;;;;;;14.07;12.45;;;;;;;13.74;52.56;101416.66;5078877;28;20059;-84
2022/04/15 09:26:39;;;;;;;14.25;11.38;;;;;;;13.74;53.15;101419.47;5081757;28;20052;-85
2022/04/15 09:29:07;;;;;;;9.55;8.45;;;;;;;13.74;52.75;101425.06;5079591;28;20048;-85
2022/04/15 09:31:34;;;;;;;7.85;5.47;;;;;;;13.65;52.69;101429.75;5080212;28;20028;-81
2022/04/15 09:34:16;;;;;;;6.95;5.20;;;;;;;13.65;52.84;101429.75;5079894;28;20068;-82
2022/04/15 09:36:48;;;;;;;9.85;5.57;;;;;;;13.63;53.11;101431.19;5079725;28;20394;-83
2022/04/15 09:39:15;;;;;;;8.65;6.47;;;;;;;13.56;53.41;101431.59;5079671;28;20052;-84
2022/04/15 09:41:50;;;;;;;6.32;5.53;;;;;;;13.56;53.31;101442.78;5078497;28;20052;-83
2022/04/15 09:44:18;;;;;;;8.07;6.10;;;;;;;13.58;53.64;101426.53;5078661;28;20060;-83
2022/04/15 09:46:49;;;;;;;7.68;6.38;;;;;;;13.62;53.39;101438.75;5078611;28;20045;-83
2022/04/15 09:49:16;;;;;;;7.20;6.45;;;;;;;13.58;54.16;101440.50;5079260;28;20421;-83
2022/04/15 09:51:46;;;;;;;7.95;6.50;;;;;;;13.69;53.30;101441.13;5079499;28;20044;-82
2022/04/15 09:54:22;;;;;;;7.90;5.38;;;;;;;13.74;53.50;101441.03;5079577;28;20048;-81
2022/04/15 09:56:51;;;;;;;6.53;5.18;;;;;;;13.72;52.88;101441.34;5076547;28;20408;-82
2022/04/15 09:59:24;;;;;;;8.90;5.80;;;;;;;13.67;53.21;101447.06;5077017;28;20054;-87
2022/04/15 10:01:55;;;;;;;6.05;5.38;;;;;;;13.69;53.38;101447.59;5076496;28;20390;-83
2022/04/15 10:04:24;;;;;;;5.40;4.82;;;;;;;13.72;53.58;101448.91;5077783;28;20045;-84
2022/04/15 10:06:54;;;;;;;8.18;6.10;;;;;;;13.78;53.06;101447.69;5079010;28;20071;-83
2022/04/15 10:09:24;;;;;;;7.03;5.07;;;;;;;13.84;52.96;101456.78;5078097;28;20055;-83
2022/04/15 10:11:51;;;;;;;7.22;5.60;;;;;;;13.90;53.02;101458.34;5078542;28;20048;-83
2022/04/15 10:14:21;;;;;;;6.32;5.72;;;;;;;13.99;52.31;101456.47;5078854;28;20075;-83
2022/04/15 10:16:48;;;;;;;7.18;5.47;;;;;;;14.02;52.77;101456.66;5079597;28;20048;-83
2022/04/15 10:19:16;;;;;;;7.97;5.43;;;;;;;14.08;52.79;101454.56;5078842;28;20053;-83
2022/04/15 10:21:46;;;;;;;6.05;5.38;;;;;;;14.21;52.17;101452.88;5078755;28;20052;-83
2022/04/15 10:24:15;;;;;;;5.63;5.10;;;;;;;14.37;51.95;101442.97;5077220;28;20040;-83
2022/04/15 10:26:49;;;;;;;5.63;4.80;;;;;;;14.56;51.11;101445.66;5079221;28;20048;-82
2022/04/15 10:29:16;;;;;;;4.88;4.35;;;;;;;14.68;50.77;101445.09;5058949;28;20057;-83
2022/04/15 10:31:45;;;;;;;4.97;4.45;;;;;;;14.87;50.42;101438.47;5075130;28;20416;-83
2022/04/15 10:34:14;;;;;;;5.25;4.65;;;;;;;14.97;50.08;101440.97;5078270;28;20409;-84
2022/04/15 10:36:47;;;;;;;6.82;5.03;;;;;;;15.06;50.02;101443.84;5078844;28;20048;-83
2022/04/15 10:39:18;;;;;;;6.88;5.00;;;;;;;15.13;49.87;101444.22;5077324;28;20059;-84
2022/04/15 10:41:56;;;;;;;5.80;5.20;;;;;;;15.24;49.40;101445.59;5078370;28;20054;-83
2022/04/15 10:44:33;;;;;;;7.18;5.78;;;;;;;15.28;49.42;101440.97;5077768;28;20057;-83
2022/04/15 10:47:10;;;;;;;6.00;5.25;;;;;;;15.22;48.94;101439.47;5078499;28;20055;-83
2022/04/15 10:49:40;;;;;;;7.07;5.95;;;;;;;15.09;49.42;101448.81;5078526;28;20413;-83
2022/04/15 10:52:21;;;;;;;6.22;5.10;;;;;;;15.12;49.66;101449.00;5078571;28;20496;-82
2022/04/15 10:54:52;;;;;;;5.82;4.97;;;;;;;15.34;49.53;101442.50;5076400;28;20048;-83
2022/04/15 10:57:21;;;;;;;5.30;4.63;;;;;;;15.61;48.67;101435.84;5077896;28;20051;-83
2022/04/15 11:02:44;;;;;;;5.43;4.85;;;;;;;16.30;46.06;101440.00;5080303;28;20443;-83
2022/04/15 11:05:13;;;;;;;6.40;4.70;;;;;;;16.57;45.53;101438.03;5081156;28;20056;-84
2022/04/15 11:07:59;;;;;;;6.22;4.50;;;;;;;16.75;45.24;101436.00;5079204;28;20056;-83
2022/04/15 11:11:01;;;;;;;5.32;4.20;;;;;;;16.67;44.56;101446.09;5081910;28;20523;-83
2022/04/15 11:14:03;;;;;;;6.35;5.15;;;;;;;16.60;46.23;101452.22;5063754;28;20049;-84
2022/04/15 11:16:50;;;;;;;6.03;4.85;;;;;;;16.47;46.11;101446.78;5041087;28;20052;-84
2022/04/15 11:19:23;;;;;;;5.32;4.80;;;;;;;16.40;45.81;101448.09;5060330;28;20490;-83
2022/04/15 11:21:54;;;;;;;7.18;5.32;;;;;;;16.36;46.12;101457.53;5057744;28;20064;-83
2022/04/15 11:24:27;;;;;;;6.65;4.57;;;;;;;16.30;45.65;101454.06;5072489;28;20048;-85
2022/04/15 11:27:03;;;;;;;5.28;4.78;;;;;;;16.21;46.18;101454.03;5079612;28;20059;-82
2022/04/15 11:29:31;;;;;;;4.65;4.10;;;;;;;16.22;46.44;101461.31;5079615;28;20055;-84
2022/04/15 11:32:00;;;;;;;7.20;5.40;;;;;;;16.20;46.29;101460.00;5079119;28;20055;-83
2022/04/15 11:34:36;;;;;;;5.07;4.53;;;;;;;16.30;45.46;101454.06;5080539;28;20048;-85
2022/04/15 11:37:05;;;;;;;5.85;4.53;;;;;;;16.37;46.17;101462.00;5082506;28;20412;-82
2022/04/15 11:39:35;;;;;;;6.13;4.30;;;;;;;16.53;45.99;101451.91;5079225;28;20059;-82
2022/04/15 11:42:09;;;;;;;;;;;;;;;16.61;45.34;101448.28;5080340;28;20060;-82
2022/04/15 11:44:39;;;;;;;5.10;3.97;;;;;;;16.66;45.25;101449.25;5078620;28;20311;-83
2022/04/15 11:47:24;;;;;;;4.75;3.95;;;;;;;16.73;44.84;101449.56;5078711;28;20056;-83
2022/04/15 11:50:01;;;;;;;5.47;4.20;;;;;;;16.70;45.01;101451.06;5078919;28;20067;-83
2022/04/15 11:52:32;;;;;;;4.70;3.78;;;;;;;16.67;44.67;101451.72;5079573;28;20049;-82
2022/04/15 11:55:02;;;;;;;4.35;3.95;;;;;;;16.73;45.07;101452.38;5078960;28;20485;-83
2022/04/15 11:57:34;;;;;;;5.28;4.22;;;;;;;16.74;45.36;101456.88;5076020;28;20044;-77
2022/04/15 12:00:04;;;;;;;4.10;3.70;;;;;;;16.54;45.40;101458.34;5071231;28;20056;-77
2022/04/15 12:02:32;;;;;;;4.28;3.17;;;;;;;16.68;46.02;101461.00;5071838;28;20069;-77
2022/04/15 12:05:00;;;;;;;5.03;3.60;;;;;;;16.91;44.31;101453.25;5071817;28;20064;-82
2022/04/15 12:07:29;;;;;;;4.15;3.53;;;;;;;16.95;44.29;101451.41;5066509;28;20519;-83
2022/04/15 12:09:56;;;;;;;4.63;3.92;;;;;;;16.97;43.65;101449.91;5072171;28;20532;-83
2022/04/15 12:12:29;;;;;;;5.20;3.70;;;;;;;16.94;44.10;101456.19;5078212;28;20040;-83
2022/04/15 12:14:59;;;;;;;4.50;3.35;;;;;;;17.10;43.35;101444.44;5077243;28;20060;-84
2022/04/15 12:17:27;;;;;;;3.83;3.30;;;;;;;17.20;43.38;101452.50;5076809;28;20049;-83
2022/04/15 12:19:54;;;;;;;3.60;3.05;;;;;;;17.33;42.95;101453.47;5076127;28;20063;-84
2022/04/15 12:22:23;;;;;;;4.22;3.83;;;;;;;17.43;42.38;101447.47;5076608;28;20049;-83
2022/04/15 12:24:52;;;;;;;4.07;3.45;;;;;;;17.54;42.62;101445.91;5076378;28;20056;-86
2022/04/15 12:27:33;;;;;;;4.50;3.28;;;;;;;17.60;42.52;101452.19;5077137;28;20404;-84